Time;durP1;ratioP1;P1;durP2;ratioP2;P2;SDS_P1;SDS_P2;PMS_P1;PMS_P2;Temp;Humidity;BMP_temperature;BMP_pressure;BME280_temperature;BME280_humidity;BME280_pressure;Samples;Min_cycle;Max_cycle;Signal;HPM_P1;HPM_P2
2023/06/27 00:00:43;;;;;;;7.03;2.20;;;;;;;;;;5038598;28;20025;-74
2023/06/27 00:03:11;;;;;;;5.32;2.75;;;;;;;;;;5042865;28;20025;-74
2023/06/27 00:05:37;;;;;;;5.68;1.88;;;;;;;;;;5038181;28;20041;-73
2023/06/27 00:08:03;;;;;;;5.47;1.70;;;;;;;;;;5039887;28;20025;-75
2023/06/27 00:10:29;;;;;;;3.05;1.70;;;;;;;;;;5053542;28;20110;-78
2023/06/27 00:12:56;;;;;;;4.63;1.35;;;;;;;;;;5038024;28;20435;-77
2023/06/27 00:15:22;;;;;;;5.57;1.73;;;;;;;;;;5036537;28;20078;-84
2023/06/27 00:17:48;;;;;;;5.85;1.40;;;;;;;;;;5032816;28;20056;-73
2023/06/27 00:20:14;;;;;;;7.18;1.77;;;;;;;;;;5044661;28;20467;-73
2023/06/27 00:22:40;;;;;;;8.23;1.77;;;;;;;;;;5035726;28;20084;-73
2023/06/27 00:25:12;;;;;;;5.65;1.50;;;;;;;;;;5040948;28;20040;-73
2023/06/27 00:27:39;;;;;;;3.78;1.80;;;;;;;;;;5037759;28;20105;-74
2023/06/27 00:30:06;;;;;;;3.17;1.50;;;;;;;;;;5038006;28;20485;-73
2023/06/27 00:32:32;;;;;;;2.42;1.45;;;;;;;;;;5043410;28;20040;-74
2023/06/27 00:34:58;;;;;;;5.35;2.25;;;;;;;;;;5044594;28;20037;-73
2023/06/27 00:37:24;;;;;;;6.90;2.17;;;;;;;;;;5040733;28;21819;-73
2023/06/27 00:39:50;;;;;;;8.68;1.67;;;;;;;;;;5043010;28;20053;-73
2023/06/27 00:42:16;;;;;;;4.10;1.67;;;;;;;;;;5038528;28;20025;-73
2023/06/27 00:44:42;;;;;;;5.00;1.85;;;;;;;;;;5035013;28;20565;-73
2023/06/27 00:47:08;;;;;;;6.13;2.90;;;;;;;;;;5033330;28;20239;-73
2023/06/27 00:49:35;;;;;;;6.47;1.52;;;;;;;;;;5034582;28;20085;-73
2023/06/27 00:52:01;;;;;;;5.13;1.70;;;;;;;;;;5043809;28;20444;-73
2023/06/27 00:54:28;;;;;;;9.40;2.00;;;;;;;;;;5036575;28;20467;-73
2023/06/27 00:56:54;;;;;;;8.27;2.00;;;;;;;;;;5035768;28;20060;-73
2023/06/27 00:59:20;;;;;;;2.50;1.50;;;;;;;;;;5033566;28;20106;-73
2023/06/27 01:01:47;;;;;;;3.97;1.48;;;;;;;;;;5036624;28;20349;-73
2023/06/27 01:04:14;;;;;;;5.22;1.70;;;;;;;;;;5038201;28;20036;-73
2023/06/27 01:06:43;;;;;;;7.03;1.73;;;;;;;;;;5036484;28;20028;-73
2023/06/27 01:09:12;;;;;;;5.28;1.90;;;;;;;;;;5056126;28;20029;-73
2023/06/27 01:11:53;;;;;;;2.10;1.10;;;;;;;;;;5036167;28;20495;-75
2023/06/27 01:14:23;;;;;;;7.05;1.67;;;;;;;;;;5039244;28;20033;-74
2023/06/27 01:16:50;;;;;;;6.97;2.10;;;;;;;;;;5039961;28;20084;-74
2023/06/27 01:19:19;;;;;;;4.30;1.65;;;;;;;;;;5056673;28;20120;-74
2023/06/27 01:21:48;;;;;;;3.95;1.73;;;;;;;;;;5040685;28;20115;-74
2023/06/27 01:24:14;;;;;;;7.22;2.58;;;;;;;;;;5034517;28;20032;-73
2023/06/27 01:26:41;;;;;;;3.47;1.60;;;;;;;;;;5041660;28;20040;-74
2023/06/27 01:29:06;;;;;;;5.43;1.58;;;;;;;;;;5044614;28;20043;-73
2023/06/27 01:31:35;;;;;;;7.13;2.05;;;;;;;;;;5041650;28;20473;-74
2023/06/27 01:34:13;;;;;;;5.35;1.70;;;;;;;;;;5035230;28;20030;-74
2023/06/27 01:36:48;;;;;;;5.65;1.58;;;;;;;;;;5034239;28;20112;-74
2023/06/27 01:39:41;;;;;;;3.72;1.85;;;;;;;;;;5034805;28;20036;-74
2023/06/27 01:42:16;;;;;;;4.00;1.98;;;;;;;;;;5037171;28;20042;-74
2023/06/27 01:44:44;;;;;;;3.35;1.35;;;;;;;;;;5037718;28;20115;-74
2023/06/27 01:47:10;;;;;;;3.95;1.80;;;;;;;;;;5035738;28;20796;-74
2023/06/27 01:49:36;;;;;;;5.70;1.83;;;;;;;;;;5035816;28;20418;-74
2023/06/27 01:52:03;;;;;;;3.80;1.30;;;;;;;;;;5036754;28;20037;-74
2023/06/27 01:54:29;;;;;;;5.60;1.75;;;;;;;;;;5040830;28;20551;-74
2023/06/27 01:56:55;;;;;;;3.13;1.65;;;;;;;;;;5042404;28;20065;-74
2023/06/27 01:59:21;;;;;;;2.60;1.67;;;;;;;;;;5036604;28;20076;-74
2023/06/27 02:01:47;;;;;;;8.02;2.28;;;;;;;;;;5038375;28;20315;-74
2023/06/27 02:04:13;;;;;;;4.95;2.10;;;;;;;;;;5039682;28;20025;-74
2023/06/27 02:06:39;;;;;;;5.70;1.77;;;;;;;;;;5031645;28;20505;-73
2023/06/27 02:09:05;;;;;;;4.07;2.00;;;;;;;;;;5037878;28;20049;-73
2023/06/27 02:11:31;;;;;;;6.60;1.80;;;;;;;;;;5032913;28;20041;-73
2023/06/27 02:13:57;;;;;;;7.68;2.42;;;;;;;;;;5039304;28;20504;-73
2023/06/27 02:16:23;;;;;;;3.55;1.75;;;;;;;;;;5046539;28;20120;-73
2023/06/27 02:18:49;;;;;;;4.00;1.73;;;;;;;;;;5038473;28;20115;-74
2023/06/27 02:21:15;;;;;;;3.28;1.58;;;;;;;;;;5040972;28;20164;-74
2023/06/27 02:23:41;;;;;;;6.18;1.75;;;;;;;;;;5034600;28;20110;-74
2023/06/27 02:26:08;;;;;;;6.22;1.77;;;;;;;;;;5030497;28;20519;-74
2023/06/27 02:28:34;;;;;;;6.25;1.98;;;;;;;;;;5035074;28;20482;-74
2023/06/27 02:31:00;;;;;;;5.45;1.90;;;;;;;;;;5039787;28;20040;-74
2023/06/27 02:33:26;;;;;;;5.97;2.17;;;;;;;;;;5048363;28;20033;-73
2023/06/27 02:35:52;;;;;;;5.20;1.75;;;;;;;;;;5042141;28;20040;-74
2023/06/27 02:38:18;;;;;;;7.32;2.83;;;;;;;;;;5035294;28;20036;-73
2023/06/27 02:40:44;;;;;;;3.83;2.25;;;;;;;;;;5040833;28;20025;-73
2023/06/27 02:43:10;;;;;;;4.57;2.20;;;;;;;;;;5043639;28;20443;-74
2023/06/27 02:45:36;;;;;;;2.95;2.25;;;;;;;;;;5043727;28;20116;-74
2023/06/27 02:48:02;;;;;;;3.80;2.10;;;;;;;;;;5055395;28;20124;-74
2023/06/27 02:50:28;;;;;;;7.78;3.03;;;;;;;;;;5044354;28;20491;-74
2023/06/27 02:52:54;;;;;;;3.45;2.15;;;;;;;;;;5039009;28;20041;-74
2023/06/27 02:55:20;;;;;;;3.65;2.42;;;;;;;;;;5039506;28;20029;-73
2023/06/27 02:57:46;;;;;;;7.45;2.65;;;;;;;;;;5042163;28;20455;-74
2023/06/27 03:00:12;;;;;;;4.35;2.10;;;;;;;;;;5038956;28;20100;-73
2023/06/27 03:02:38;;;;;;;5.15;2.53;;;;;;;;;;5049453;28;20037;-73
2023/06/27 03:05:05;;;;;;;6.32;2.95;;;;;;;;;;5038019;28;20035;-72
2023/06/27 03:07:30;;;;;;;7.00;3.13;;;;;;;;;;5045932;28;20445;-72
2023/06/27 03:09:56;;;;;;;7.75;3.30;;;;;;;;;;5047580;28;20037;-73
2023/06/27 03:12:22;;;;;;;6.28;2.83;;;;;;;;;;5042154;28;20037;-73
2023/06/27 03:14:48;;;;;;;4.45;2.75;;;;;;;;;;5050168;28;20455;-73
2023/06/27 03:17:15;;;;;;;3.80;2.15;;;;;;;;;;5053031;28;20040;-72
2023/06/27 03:19:41;;;;;;;5.32;2.65;;;;;;;;;;5039538;28;20041;-73
2023/06/27 03:22:07;;;;;;;7.10;2.60;;;;;;;;;;5048098;28;20098;-73
2023/06/27 03:24:33;;;;;;;4.13;2.35;;;;;;;;;;5029582;28;20025;-72
2023/06/27 03:26:59;;;;;;;13.00;2.83;;;;;;;;;;5037767;28;20550;-73
2023/06/27 03:29:25;;;;;;;6.28;2.40;;;;;;;;;;5039394;28;20044;-73
2023/06/27 03:31:51;;;;;;;5.35;2.45;;;;;;;;;;5041309;28;20386;-73
2023/06/27 03:34:17;;;;;;;8.90;2.55;;;;;;;;;;5033852;28;20033;-73
2023/06/27 03:36:43;;;;;;;3.78;2.25;;;;;;;;;;5039797;28;20033;-73
2023/06/27 03:39:09;;;;;;;4.22;2.53;;;;;;;;;;5036351;28;20038;-73
2023/06/27 03:41:35;;;;;;;9.02;2.83;;;;;;;;;;5039537;28;20059;-73
2023/06/27 03:44:01;;;;;;;5.82;2.70;;;;;;;;;;5039231;28;20056;-73
2023/06/27 03:46:27;;;;;;;5.65;3.03;;;;;;;;;;5047298;28;20063;-73
2023/06/27 03:48:56;;;;;;;6.35;2.80;;;;;;;;;;5040774;28;20063;-74
2023/06/27 03:51:23;;;;;;;5.43;2.88;;;;;;;;;;5036963;28;20026;-73
2023/06/27 03:53:49;;;;;;;6.38;2.70;;;;;;;;;;5038986;28;20021;-73
2023/06/27 03:56:15;;;;;;;5.82;2.72;;;;;;;;;;5043667;28;20540;-75
2023/06/27 03:58:41;;;;;;;5.35;2.58;;;;;;;;;;5043417;28;20034;-75
2023/06/27 04:01:07;;;;;;;8.95;2.60;;;;;;;;;;5041880;28;20041;-75
2023/06/27 04:03:33;;;;;;;5.40;3.30;;;;;;;;;;5050464;28;20398;-74
2023/06/27 04:05:59;;;;;;;5.15;2.78;;;;;;;;;;5052859;28;20087;-74
2023/06/27 04:08:25;;;;;;;7.30;2.40;;;;;;;;;;5041296;28;20051;-71
2023/06/27 04:10:51;;;;;;;8.30;2.63;;;;;;;;;;5041315;28;20482;-72
2023/06/27 04:13:17;;;;;;;6.75;3.08;;;;;;;;;;5044624;28;20033;-75
2023/06/27 04:15:43;;;;;;;10.73;2.63;;;;;;;;;;5051561;28;20033;-75
2023/06/27 04:18:09;;;;;;;7.45;2.38;;;;;;;;;;5055620;28;20039;-74
2023/06/27 04:20:35;;;;;;;5.97;2.42;;;;;;;;;;5031045;28;20037;-73
2023/06/27 04:23:02;;;;;;;6.78;2.40;;;;;;;;;;5043392;28;20043;-74
2023/06/27 04:25:30;;;;;;;5.72;2.00;;;;;;;;;;5042529;28;20378;-73
2023/06/27 04:27:56;;;;;;;4.75;2.22;;;;;;;;;;5049354;28;20032;-75
2023/06/27 04:30:23;;;;;;;4.47;2.40;;;;;;;;;;5058206;28;20041;-74
2023/06/27 04:32:49;;;;;;;5.13;2.35;;;;;;;;;;5049092;28;20033;-74
2023/06/27 04:35:17;;;;;;;6.95;2.72;;;;;;;;;;5058096;28;20044;-74
2023/06/27 04:37:43;;;;;;;8.10;2.90;;;;;;;;;;5039932;28;20366;-74
2023/06/27 04:40:10;;;;;;;4.68;3.00;;;;;;;;;;5031521;28;20034;-74
2023/06/27 04:42:37;;;;;;;6.60;3.10;;;;;;;;;;5061707;28;20485;-73
2023/06/27 04:45:03;;;;;;;12.43;3.00;;;;;;;;;;5043214;28;20049;-74
2023/06/27 04:47:29;;;;;;;11.00;3.50;;;;;;;;;;5049224;28;20025;-76
2023/06/27 04:49:55;;;;;;;6.38;3.20;;;;;;;;;;5047167;28;20049;-74
2023/06/27 04:52:21;;;;;;;10.32;3.70;;;;;;;;;;5050235;28;20037;-74
2023/06/27 04:54:53;;;;;;;6.68;3.00;;;;;;;;;;5049422;28;20143;-74
2023/06/27 04:57:19;;;;;;;7.88;3.50;;;;;;;;;;5049908;28;20040;-73
2023/06/27 04:59:45;;;;;;;3.92;2.47;;;;;;;;;;5040586;28;20045;-72
2023/06/27 05:02:11;;;;;;;10.80;3.47;;;;;;;;;;5047508;28;20033;-72
2023/06/27 05:04:37;;;;;;;11.88;3.05;;;;;;;;;;5049395;28;20566;-72
2023/06/27 05:07:04;;;;;;;8.43;3.35;;;;;;;;;;5050828;28;20120;-74
2023/06/27 05:09:31;;;;;;;15.48;6.97;;;;;;;;;;5040729;28;20486;-81
2023/06/27 05:11:57;;;;;;;7.88;3.55;;;;;;;;;;5034077;28;20099;-79
2023/06/27 05:14:23;;;;;;;8.45;3.47;;;;;;;;;;5048957;28;20048;-74
2023/06/27 05:16:49;;;;;;;5.15;2.58;;;;;;;;;;5035559;28;20395;-75
2023/06/27 05:19:15;;;;;;;7.43;2.97;;;;;;;;;;5039470;28;20037;-73
2023/06/27 05:21:41;;;;;;;7.88;3.05;;;;;;;;;;5050031;28;20033;-74
2023/06/27 05:24:07;;;;;;;9.70;3.00;;;;;;;;;;5050371;28;20033;-74
2023/06/27 05:26:34;;;;;;;11.85;2.70;;;;;;;;;;5047260;28;20076;-73
2023/06/27 05:29:00;;;;;;;8.55;2.42;;;;;;;;;;5050215;28;20063;-74
2023/06/27 05:31:27;;;;;;;10.43;2.70;;;;;;;;;;5048548;28;20037;-74
2023/06/27 05:33:54;;;;;;;9.32;2.40;;;;;;;;;;5041765;28;20111;-74
2023/06/27 05:36:20;;;;;;;8.40;2.67;;;;;;;;;;5048984;28;20036;-74
2023/06/27 05:38:46;;;;;;;8.48;2.13;;;;;;;;;;5047407;28;20047;-74
2023/06/27 05:41:13;;;;;;;10.52;2.42;;;;;;;;;;5049628;28;20029;-74
2023/06/27 05:43:39;;;;;;;7.95;2.65;;;;;;;;;;5058657;28;20505;-74
2023/06/27 05:46:05;;;;;;;5.75;2.47;;;;;;;;;;5062577;28;20060;-75
2023/06/27 05:48:31;;;;;;;7.80;1.80;;;;;;;;;;5046937;28;20039;-75
2023/06/27 05:50:57;;;;;;;4.05;1.77;;;;;;;;;;5037124;28;20434;-75
2023/06/27 05:53:23;;;;;;;12.73;2.25;;;;;;;;;;5049579;28;20047;-75
2023/06/27 05:55:49;;;;;;;3.55;1.38;;;;;;;;;;5043392;28;20048;-75
2023/06/27 05:58:15;;;;;;;8.20;1.70;;;;;;;;;;5048510;28;20104;-75
2023/06/27 06:00:41;;;;;;;8.45;1.60;;;;;;;;;;5046365;28;20052;-76
2023/06/27 06:03:07;;;;;;;11.15;1.30;;;;;;;;;;5041295;28;20044;-74
2023/06/27 06:05:33;;;;;;;8.40;2.10;;;;;;;;;;5047201;28;20028;-74
2023/06/27 06:07:59;;;;;;;11.23;1.50;;;;;;;;;;5049555;28;20029;-74
2023/06/27 06:10:25;;;;;;;6.28;1.50;;;;;;;;;;5057388;28;20036;-74
2023/06/27 06:12:51;;;;;;;15.55;1.58;;;;;;;;;;5057068;28;20040;-75
2023/06/27 06:15:17;;;;;;;10.93;2.15;;;;;;;;;;5051173;28;20525;-73
2023/06/27 06:17:43;;;;;;;3.90;1.30;;;;;;;;;;5062517;28;20028;-80
2023/06/27 06:20:10;;;;;;;9.13;1.95;;;;;;;;;;5056631;28;20039;-77
2023/06/27 06:22:38;;;;;;;7.53;1.50;;;;;;;;;;5047895;28;20032;-74
2023/06/27 06:25:05;;;;;;;9.07;1.50;;;;;;;;;;5053183;28;20036;-74
2023/06/27 06:27:31;;;;;;;5.95;1.00;;;;;;;;;;5059926;28;20070;-74
2023/06/27 06:29:57;;;;;;;4.18;1.20;;;;;;;;;;5055575;28;20076;-75
2023/06/27 06:32:23;;;;;;;5.75;1.30;;;;;;;;;;5050315;28;20032;-75
2023/06/27 06:34:49;;;;;;;10.27;1.38;;;;;;;;;;5057737;28;20084;-75
2023/06/27 06:37:15;;;;;;;7.20;0.95;;;;;;;;;;5057103;28;20609;-75
2023/06/27 06:39:44;;;;;;;24.40;12.85;;;;;;;;;;5058552;28;20041;-79
2023/06/27 06:42:11;;;;;;;8.48;1.48;;;;;;;;;;5041362;28;20435;-77
2023/06/27 06:44:37;;;;;;;5.78;1.52;;;;;;;;;;5053775;28;20386;-79
2023/06/27 06:47:03;;;;;;;8.43;1.17;;;;;;;;;;5053965;28;20095;-78
2023/06/27 06:49:29;;;;;;;9.02;1.13;;;;;;;;;;5045815;28;20516;-74
2023/06/27 06:51:55;;;;;;;6.10;1.05;;;;;;;;;;5060417;28;20524;-74
2023/06/27 06:54:21;;;;;;;4.03;0.88;;;;;;;;;;5053374;28;20068;-74
2023/06/27 06:56:49;;;;;;;4.10;0.98;;;;;;;;;;5055356;28;20712;-74
2023/06/27 06:59:15;;;;;;;4.43;1.15;;;;;;;;;;5051609;28;20039;-75
2023/06/27 07:01:41;;;;;;;8.18;1.38;;;;;;;;;;5056209;28;20124;-76
2023/06/27 07:04:07;;;;;;;3.50;0.77;;;;;;;;;;5045878;28;20115;-76
2023/06/27 07:06:33;;;;;;;3.95;1.08;;;;;;;;;;5047154;28;20120;-76
2023/06/27 07:08:59;;;;;;;6.03;0.98;;;;;;;;;;5051958;28;20040;-75
2023/06/27 07:11:25;;;;;;;3.78;0.85;;;;;;;;;;5042274;28;20440;-77
2023/06/27 07:13:51;;;;;;;5.07;1.02;;;;;;;;;;5046618;28;20029;-76
2023/06/27 07:16:17;;;;;;;11.18;1.75;;;;;;;;;;5041840;28;20083;-76
2023/06/27 07:18:43;;;;;;;5.35;0.95;;;;;;;;;;5044125;28;20060;-76
2023/06/27 07:21:09;;;;;;;5.78;1.25;;;;;;;;;;5042667;28;20467;-80
2023/06/27 07:23:36;;;;;;;5.88;1.10;;;;;;;;;;5054059;28;20033;-71
2023/06/27 07:26:03;;;;;;;3.85;1.15;;;;;;;;;;5060509;28;20518;-70
2023/06/27 07:28:28;;;;;;;7.55;2.53;;;;;;;;;;5058986;28;20475;-72
2023/06/27 07:30:54;;;;;;;3.33;1.20;;;;;;;;;;5053309;28;20052;-75
2023/06/27 07:33:20;;;;;;;2.85;1.10;;;;;;;;;;5042428;28;20072;-74
2023/06/27 07:35:47;;;;;;;6.38;1.45;;;;;;;;;;5037196;28;20447;-75
2023/06/27 07:38:16;;;;;;;4.25;1.25;;;;;;;;;;5045690;28;20328;-75
2023/06/27 07:40:42;;;;;;;3.85;0.80;;;;;;;;;;5050651;28;20037;-75
2023/06/27 07:43:08;;;;;;;3.63;0.95;;;;;;;;;;5044408;28;20094;-75
2023/06/27 07:45:34;;;;;;;7.45;0.90;;;;;;;;;;5051672;28;20116;-75
2023/06/27 07:48:00;;;;;;;3.67;0.90;;;;;;;;;;5052771;28;20029;-74
2023/06/27 07:50:26;;;;;;;7.78;1.42;;;;;;;;;;5050773;28;20068;-75
2023/06/27 07:52:52;;;;;;;6.95;1.10;;;;;;;;;;5058680;28;20037;-76
2023/06/27 07:55:18;;;;;;;8.32;1.00;;;;;;;;;;5047307;28;20159;-80
2023/06/27 07:57:44;;;;;;;3.25;0.80;;;;;;;;;;5054303;28;20032;-74
2023/06/27 08:00:11;;;;;;;9.73;1.35;;;;;;;;;;5062344;28;20489;-80
2023/06/27 08:02:37;;;;;;;3.47;0.93;;;;;;;;;;5053875;28;20025;-77
2023/06/27 08:05:03;;;;;;;10.80;1.58;;;;;;;;;;5055530;28;20033;-82
2023/06/27 08:07:29;;;;;;;5.38;1.05;;;;;;;;;;5051692;28;20048;-84
2023/06/27 08:09:55;;;;;;;6.82;1.30;;;;;;;;;;5060229;28;20041;-84
2023/06/27 08:12:21;;;;;;;5.72;1.00;;;;;;;;;;5049054;28;20056;-84
2023/06/27 08:14:49;;;;;;;4.82;1.05;;;;;;;;;;5047954;28;20032;-81
2023/06/27 08:17:15;;;;;;;4.53;1.10;;;;;;;;;;5044366;28;20508;-79
2023/06/27 08:19:41;;;;;;;5.35;1.15;;;;;;;;;;5053343;28;20033;-77
2023/06/27 08:22:07;;;;;;;6.80;2.97;;;;;;;;;;5052692;28;20025;-79
2023/06/27 08:24:33;;;;;;;6.82;1.17;;;;;;;;;;5050720;28;20025;-78
2023/06/27 08:26:59;;;;;;;5.97;1.70;;;;;;;;;;5053435;28;20455;-80
2023/06/27 08:29:26;;;;;;;5.05;1.20;;;;;;;;;;5060141;28;20112;-82
2023/06/27 08:31:58;;;;;;;9.48;1.40;;;;;;;;;;5054260;28;20536;-79
2023/06/27 08:34:24;;;;;;;4.47;1.70;;;;;;;;;;5049001;28;20025;-78
2023/06/27 08:36:51;;;;;;;6.18;1.55;;;;;;;;;;5059895;28;20097;-81
2023/06/27 08:39:17;;;;;;;7.82;1.23;;;;;;;;;;5046973;28;20036;-83
2023/06/27 08:41:45;;;;;;;7.03;1.23;;;;;;;;;;5043654;28;20032;-82
2023/06/27 08:44:11;;;;;;;5.35;1.58;;;;;;;;;;5057891;28;20033;-83
2023/06/27 08:46:38;;;;;;;4.03;1.13;;;;;;;;;;5051088;28;20143;-77
2023/06/27 08:49:04;;;;;;;5.93;1.60;;;;;;;;;;5050727;28;20493;-78
2023/06/27 08:51:33;;;;;;;5.38;1.13;;;;;;;;;;5057721;28;20051;-76
2023/06/27 08:54:04;;;;;;;8.13;1.20;;;;;;;;;;5045957;28;20032;-76
2023/06/27 08:56:31;;;;;;;6.57;1.17;;;;;;;;;;5051935;28;20037;-77
2023/06/27 08:59:07;;;;;;;4.72;0.82;;;;;;;;;;5040790;28;20029;-78
2023/06/27 09:01:35;;;;;;;5.22;1.27;;;;;;;;;;5043729;28;20034;-78
2023/06/27 09:04:04;;;;;;;8.23;3.47;;;;;;;;;;5037152;28;20025;-78
2023/06/27 09:06:30;;;;;;;3.67;1.20;;;;;;;;;;5044808;28;20115;-77
2023/06/27 09:08:57;;;;;;;8.30;1.20;;;;;;;;;;5048889;28;20041;-77
2023/06/27 09:11:25;;;;;;;9.88;1.20;;;;;;;;;;5050260;28;20035;-77
2023/06/27 09:13:51;;;;;;;5.13;1.33;;;;;;;;;;5035799;28;20029;-76
2023/06/27 09:16:17;;;;;;;5.07;1.23;;;;;;;;;;5044011;28;20036;-78
2023/06/27 09:18:43;;;;;;;4.13;1.17;;;;;;;;;;5050921;28;20017;-77
2023/06/27 09:21:10;;;;;;;5.18;1.50;;;;;;;;;;5043747;28;20040;-79
2023/06/27 09:23:36;;;;;;;4.03;1.15;;;;;;;;;;5049578;28;20040;-78
2023/06/27 09:26:11;;;;;;;2.88;1.05;;;;;;;;;;5040886;28;20098;-79
2023/06/27 09:28:45;;;;;;;4.25;0.85;;;;;;;;;;5046824;28;20143;-79
2023/06/27 09:31:12;;;;;;;5.50;1.10;;;;;;;;;;5053021;28;20087;-73
2023/06/27 09:33:39;;;;;;;5.63;1.00;;;;;;;;;;5055243;28;20842;-71
2023/06/27 09:36:05;;;;;;;72.75;47.83;;;;;;;;;;5046340;28;20575;-71
2023/06/27 09:38:34;;;;;;;6.30;1.60;;;;;;;;;;5050307;28;20054;-72
2023/06/27 09:41:02;;;;;;;3.83;0.77;;;;;;;;;;5054815;28;20024;-71
2023/06/27 09:43:31;;;;;;;7.90;1.58;;;;;;;;;;5043446;28;20040;-71
2023/06/27 09:45:58;;;;;;;3.85;1.35;;;;;;;;;;5051197;28;20128;-72
2023/06/27 09:48:24;;;;;;;5.75;1.10;;;;;;;;;;5055208;28;20043;-72
2023/06/27 09:50:58;;;;;;;2.83;0.77;;;;;;;;;;5041095;28;20060;-71
2023/06/27 09:53:24;;;;;;;6.80;1.23;;;;;;;;;;5059456;28;20094;-72
2023/06/27 09:55:55;;;;;;;7.72;1.15;;;;;;;;;;5053020;28;20104;-73
2023/06/27 09:58:31;;;;;;;4.25;1.52;;;;;;;;;;5046755;28;20036;-73
2023/06/27 10:01:05;;;;;;;7.50;1.35;;;;;;;;;;5044169;28;20110;-72
2023/06/27 10:03:31;;;;;;;7.00;0.93;;;;;;;;;;5050460;28;20112;-72
2023/06/27 10:05:57;;;;;;;4.63;1.00;;;;;;;;;;5040256;28;20033;-75
2023/06/27 10:08:23;;;;;;;5.35;0.70;;;;;;;;;;5049693;28;20470;-73
2023/06/27 10:10:50;;;;;;;5.22;0.95;;;;;;;;;;5059303;28;20033;-72
2023/06/27 10:13:16;;;;;;;5.15;1.05;;;;;;;;;;5049661;28;20116;-74
2023/06/27 10:15:42;;;;;;;5.00;1.30;;;;;;;;;;5045303;28;20052;-75
2023/06/27 10:18:08;;;;;;;4.80;0.88;;;;;;;;;;5050906;28;20079;-75
2023/06/27 10:20:34;;;;;;;4.45;0.93;;;;;;;;;;5052095;28;20037;-73
2023/06/27 10:23:01;;;;;;;4.07;1.05;;;;;;;;;;5047500;28;20037;-75
2023/06/27 10:25:27;;;;;;;5.43;1.02;;;;;;;;;;5054015;28;20017;-74
2023/06/27 10:28:03;;;;;;;15.18;6.57;;;;;;;;;;5037716;28;20177;-76
2023/06/27 10:30:29;;;;;;;3.92;1.08;;;;;;;;;;5055585;28;20076;-72
2023/06/27 10:33:12;;;;;;;3.38;1.10;;;;;;;;;;5048673;28;20064;-72
2023/06/27 10:35:49;;;;;;;4.53;1.20;;;;;;;;;;5054320;28;20493;-72
2023/06/27 10:38:16;;;;;;;7.35;1.40;;;;;;;;;;5050924;28;20478;-77
2023/06/27 10:40:58;;;;;;;3.00;0.82;;;;;;;;;;5054594;28;20173;-77
2023/06/27 10:43:44;;;;;;;3.17;1.00;;;;;;;;;;5056052;28;20393;-77
2023/06/27 10:46:20;;;;;;;5.80;1.15;;;;;;;;;;5056882;28;23015;-78
2023/06/27 10:48:47;;;;;;;2.95;0.60;;;;;;;;;;5054813;28;20032;-75
2023/06/27 10:51:20;;;;;;;3.85;0.88;;;;;;;;;;5046996;28;20033;-76
2023/06/27 10:54:05;;;;;;;3.40;0.80;;;;;;;;;;5055380;28;20102;-79
2023/06/27 10:56:33;;;;;;;4.72;1.15;;;;;;;;;;5048542;28;20056;-75
2023/06/27 10:58:59;;;;;;;6.43;1.00;;;;;;;;;;5047995;28;20090;-75
2023/06/27 11:01:25;;;;;;;5.85;1.00;;;;;;;;;;5058273;28;20175;-75
2023/06/27 11:03:57;;;;;;;3.38;1.02;;;;;;;;;;5058814;28;20097;-76
2023/06/27 11:06:39;;;;;;;4.05;1.27;;;;;;;;;;5050168;28;20050;-74
2023/06/27 11:09:05;;;;;;;6.68;0.82;;;;;;;;;;5067641;28;20141;-72
2023/06/27 11:11:31;;;;;;;5.75;1.08;;;;;;;;;;5054999;28;20577;-72
2023/06/27 11:14:05;;;;;;;3.50;1.13;;;;;;;;;;5055121;28;20028;-72
2023/06/27 11:16:32;;;;;;;6.90;1.02;;;;;;;;;;5050609;28;20092;-74
2023/06/27 11:18:59;;;;;;;6.68;1.20;;;;;;;;;;5056597;28;20032;-75
2023/06/27 11:21:25;;;;;;;3.83;1.25;;;;;;;;;;5060457;28;20032;-74
2023/06/27 11:23:51;;;;;;;6.15;0.90;;;;;;;;;;5058752;28;20063;-71
2023/06/27 11:26:21;;;;;;;3.97;1.02;;;;;;;;;;5052273;28;21701;-73
2023/06/27 11:28:47;;;;;;;5.93;1.00;;;;;;;;;;5054188;28;20028;-76
2023/06/27 11:31:13;;;;;;;6.20;1.00;;;;;;;;;;5041630;28;20032;-77
2023/06/27 11:33:39;;;;;;;6.15;1.90;;;;;;;;;;5051807;28;20021;-76
2023/06/27 11:36:06;;;;;;;5.55;1.45;;;;;;;;;;5048194;28;20037;-78
2023/06/27 11:38:32;;;;;;;4.97;1.00;;;;;;;;;;5055742;28;20477;-78
2023/06/27 11:40:58;;;;;;;5.20;0.90;;;;;;;;;;5052890;28;20393;-81
2023/06/27 11:43:25;;;;;;;6.78;0.90;;;;;;;;;;5060405;28;20034;-76
2023/06/27 11:45:52;;;;;;;5.65;1.27;;;;;;;;;;5052467;28;20029;-77
2023/06/27 11:48:18;;;;;;;3.72;0.98;;;;;;;;;;5058616;28;20476;-75
2023/06/27 11:50:58;;;;;;;5.28;1.00;;;;;;;;;;5050030;28;20432;-77
2023/06/27 11:53:26;;;;;;;7.38;1.13;;;;;;;;;;5049532;28;20524;-76
2023/06/27 11:55:52;;;;;;;5.18;0.70;;;;;;;;;;5053498;28;20036;-76
2023/06/27 11:58:26;;;;;;;9.73;1.10;;;;;;;;;;5049178;28;20549;-76
2023/06/27 12:00:52;;;;;;;6.05;0.75;;;;;;;;;;5051617;28;20039;-74
2023/06/27 12:03:24;;;;;;;2.58;1.00;;;;;;;;;;5051533;28;20457;-75
2023/06/27 12:05:50;;;;;;;4.53;0.90;;;;;;;;;;5052120;28;20096;-74
2023/06/27 12:08:20;;;;;;;2.35;1.17;;;;;;;;;;5036987;28;20026;-73
2023/06/27 12:11:03;;;;;;;4.82;2.35;;;;;;;;;;5036353;28;20031;-75
2023/06/27 12:13:39;;;;;;;4.15;0.82;;;;;;;;;;5040858;28;20032;-73
2023/06/27 12:16:06;;;;;;;7.63;0.80;;;;;;;;;;5051272;28;20033;-73
2023/06/27 12:18:32;;;;;;;6.00;0.90;;;;;;;;;;5050094;28;20059;-71
2023/06/27 12:20:59;;;;;;;4.43;1.40;;;;;;;;;;5053345;28;20233;-74
2023/06/27 12:23:27;;;;;;;2.50;0.82;;;;;;;;;;5046214;28;20520;-74
2023/06/27 12:25:53;;;;;;;4.70;0.60;;;;;;;;;;5044090;28;20097;-74
2023/06/27 12:28:19;;;;;;;3.33;0.82;;;;;;;;;;5056557;28;20130;-75
2023/06/27 12:30:45;;;;;;;5.00;1.08;;;;;;;;;;5051567;28;20041;-76
2023/06/27 12:33:11;;;;;;;3.05;0.95;;;;;;;;;;5048071;28;20059;-76
2023/06/27 12:35:39;;;;;;;6.45;1.23;;;;;;;;;;5040566;28;20479;-76
2023/06/27 12:38:05;;;;;;;6.40;1.10;;;;;;;;;;5034863;28;20487;-76
2023/06/27 12:40:31;;;;;;;5.60;1.13;;;;;;;;;;5043690;28;20177;-76
2023/06/27 12:42:57;;;;;;;2.83;1.00;;;;;;;;;;5051821;28;20471;-76
2023/06/27 12:45:24;;;;;;;6.03;1.20;;;;;;;;;;5049614;28;20441;-75
2023/06/27 12:47:50;;;;;;;5.93;1.10;;;;;;;;;;5047462;28;20043;-75
2023/06/27 12:50:17;;;;;;;3.08;0.70;;;;;;;;;;5049741;28;20057;-75
2023/06/27 12:52:47;;;;;;;6.55;1.05;;;;;;;;;;5042183;28;20144;-75
2023/06/27 12:55:14;;;;;;;2.88;0.73;;;;;;;;;;5050245;28;20025;-75
2023/06/27 12:57:40;;;;;;;5.30;1.00;;;;;;;;;;5044520;28;20542;-76
2023/06/27 13:00:08;;;;;;;4.38;1.23;;;;;;;;;;5049914;28;20151;-76
2023/06/27 13:02:36;;;;;;;7.45;1.13;;;;;;;;;;5046562;28;20032;-75
2023/06/27 13:05:02;;;;;;;4.80;1.00;;;;;;;;;;5040973;28;20044;-75
2023/06/27 13:07:28;;;;;;;4.32;0.95;;;;;;;;;;5046770;28;20021;-75
2023/06/27 13:09:56;;;;;;;7.75;1.05;;;;;;;;;;5050070;28;20464;-75
2023/06/27 13:12:22;;;;;;;5.40;1.10;;;;;;;;;;5058384;28;20487;-75
2023/06/27 13:14:48;;;;;;;7.57;2.22;;;;;;;;;;5045921;28;20060;-75
2023/06/27 13:17:14;;;;;;;4.88;1.10;;;;;;;;;;5048560;28;20048;-75
2023/06/27 13:19:41;;;;;;;4.32;1.00;;;;;;;;;;5048781;28;20025;-75
2023/06/27 13:22:07;;;;;;;5.85;1.20;;;;;;;;;;5050653;28;20059;-75
2023/06/27 13:24:34;;;;;;;6.97;1.05;;;;;;;;;;5049148;28;20111;-75
2023/06/27 13:27:00;;;;;;;5.45;1.27;;;;;;;;;;5043844;28;20055;-75
2023/06/27 13:29:26;;;;;;;2.90;0.77;;;;;;;;;;5045754;28;20143;-75
2023/06/27 13:31:52;;;;;;;4.10;0.90;;;;;;;;;;5050244;28;20474;-75
2023/06/27 13:34:20;;;;;;;7.57;1.20;;;;;;;;;;5049226;28;20079;-75
2023/06/27 13:36:46;;;;;;;5.70;0.77;;;;;;;;;;5047564;28;20028;-75
2023/06/27 13:39:12;;;;;;;4.65;0.98;;;;;;;;;;5047839;28;20401;-75
2023/06/27 13:41:39;;;;;;;6.88;1.88;;;;;;;;;;5050575;28;20029;-75
2023/06/27 13:44:05;;;;;;;4.47;1.13;;;;;;;;;;5048079;28;20162;-75
2023/06/27 13:46:31;;;;;;;7.85;1.27;;;;;;;;;;5044370;28;20427;-75
2023/06/27 13:48:57;;;;;;;6.10;1.30;;;;;;;;;;5065932;28;20057;-75
2023/06/27 13:51:23;;;;;;;3.03;0.93;;;;;;;;;;5049029;28;20036;-75
2023/06/27 13:53:50;;;;;;;3.30;1.20;;;;;;;;;;5044785;28;20103;-75
2023/06/27 13:56:17;;;;;;;6.10;1.15;;;;;;;;;;5047182;28;20490;-75
2023/06/27 13:58:43;;;;;;;2.63;0.88;;;;;;;;;;5029956;28;20127;-75
2023/06/27 14:01:09;;;;;;;4.28;1.20;;;;;;;;;;5044759;28;20450;-75
2023/06/27 14:03:35;;;;;;;7.82;1.15;;;;;;;;;;5045331;28;20043;-75
2023/06/27 14:06:02;;;;;;;4.70;1.55;;;;;;;;;;5049151;28;20041;-75
2023/06/27 14:08:28;;;;;;;7.38;2.05;;;;;;;;;;5039302;28;20033;-75
2023/06/27 14:10:54;;;;;;;3.45;0.85;;;;;;;;;;5056246;28;20044;-75
2023/06/27 14:13:20;;;;;;;6.50;1.00;;;;;;;;;;5047346;28;20037;-75
2023/06/27 14:15:46;;;;;;;3.03;1.02;;;;;;;;;;5039940;28;20033;-76
2023/06/27 14:18:12;;;;;;;2.47;0.68;;;;;;;;;;5044759;28;20095;-75
2023/06/27 14:20:38;;;;;;;9.38;1.27;;;;;;;;;;5036515;28;20036;-75
2023/06/27 14:23:04;;;;;;;5.43;1.20;;;;;;;;;;5046877;28;20056;-75
2023/06/27 14:25:31;;;;;;;3.92;0.85;;;;;;;;;;5045744;28;20060;-75
2023/06/27 14:27:57;;;;;;;4.40;0.90;;;;;;;;;;5048054;28;20451;-75
2023/06/27 14:30:25;;;;;;;5.47;1.13;;;;;;;;;;5051598;28;20037;-75
2023/06/27 14:32:51;;;;;;;3.33;1.00;;;;;;;;;;5051815;28;20025;-75
2023/06/27 14:35:18;;;;;;;3.00;0.80;;;;;;;;;;5052947;28;20053;-75
2023/06/27 14:37:44;;;;;;;3.90;0.90;;;;;;;;;;5051827;28;20033;-75
2023/06/27 14:40:11;;;;;;;4.82;1.88;;;;;;;;;;5054121;28;20029;-76
2023/06/27 14:42:37;;;;;;;3.72;1.02;;;;;;;;;;5045036;28;20487;-75